Data for 10/10/2005

Time Sea-Level Adjusted Pressure Absolute Pressure Temperature Relative Humidity Dew Point   
(mb) (inHg) (mb) (inHg) (C) (F) (%) (C) (F)
00:05 1025 30.27 854 25.22 1.6 34.8 85 -0.7 30.8
00:10 1025 30.27 854 25.22 1.6 34.9 85 -0.6 30.9
00:15 1025 30.27 854 25.22 1.7 35 85 -0.6 31
00:20 1025 30.27 854 25.22 1.5 34.8 86 -0.5 31.1
00:25 1025 30.27 854 25.22 1.4 34.6 86 -0.6 30.9
00:30 1025 30.27 854 25.22 1.4 34.5 86 -0.6 30.9
00:35 1025 30.27 854 25.22 1.2 34.2 87 -0.7 30.8
00:40 1025 30.27 854 25.22 1 33.8 88 -0.8 30.6
00:45 1025 30.27 854 25.22 1 33.7 88 -0.8 30.6
00:50 1025 30.27 854 25.22 1 33.7 88 -0.8 30.5
00:55 1025 30.27 854 25.22 1.1 34.1 87 -0.8 30.5
01:00 1025 30.27 855 25.25 1.2 34.2 86 -0.8 30.6
01:05 1025 30.27 855 25.25 1.1 33.9 87 -0.9 30.3
01:10 1025 30.27 855 25.25 1.2 34.1 86 -0.9 30.4
01:15 1025 30.27 855 25.25 1.1 34 87 -0.9 30.4
01:20 1025 30.27 855 25.25 1.2 34.2 86 -0.9 30.4
01:25 1025 30.27 855 25.25 1.2 34.1 86 -0.9 30.4
01:30 1025 30.27 855 25.25 1.4 34.5 85 -0.8 30.5
01:35 1025 30.27 855 25.25 1.5 34.7 85 -0.7 30.7
01:40 1025 30.27 855 25.25 1.5 34.7 85 -0.7 30.7
01:45 1025 30.27 855 25.25 1.6 34.9 84 -0.8 30.6
01:50 1025 30.27 855 25.25 1.4 34.6 85 -0.8 30.5
01:55 1025 30.27 855 25.25 1.2 34.2 86 -0.9 30.4
02:00 1025 30.27 855 25.25 1.4 34.5 85 -0.9 30.4
02:05 1025 30.27 855 25.25 1.3 34.4 86 -0.8 30.6
02:10 1026 30.3 855 25.25 1.2 34.1 86 -0.9 30.3
02:15 1026 30.3 855 25.25 1 33.9 87 -0.9 30.3
02:20 1026 30.3 855 25.25 0.8 33.5 87 -1 30.1
02:25 1026 30.3 855 25.25 0.8 33.4 87 -1 30.1
02:30 1026 30.3 855 25.25 0.8 33.4 87 -1.1 30
02:35 1026 30.3 855 25.25 0.6 33 88 -1.2 29.8
02:40 1026 30.3 855 25.25 0.4 32.7 88 -1.4 29.5
02:45 1026 30.3 855 25.25 0.9 33.6 85 -1.3 29.6
02:50 1026 30.3 855 25.25 1.5 34.6 83 -1.1 30
02:55 1026 30.3 855 25.25 1.6 34.9 83 -1 30.3
03:00 1025 30.27 855 25.25 1.5 34.7 84 -1 30.2
03:05 1025 30.27 855 25.25 1.2 34.2 85 -1.1 30
03:10 1025 30.27 855 25.25 0.9 33.6 86 -1.2 29.8
03:15 1025 30.27 855 25.25 0.8 33.4 85 -1.4 29.5
03:20 1025 30.27 855 25.25 0.8 33.5 85 -1.3 29.6
03:25 1025 30.27 855 25.25 1 33.8 85 -1.3 29.7
03:30 1025 30.27 854 25.22 1.2 34.2 83 -1.3 29.6
03:35 1025 30.27 854 25.22 0.8 33.4 85 -1.5 29.3
03:40 1025 30.27 854 25.22 -0.2 31.7 90 -1.7 29
03:45 1025 30.27 854 25.22 -0.7 30.8 93 -1.7 28.9
03:50 1025 30.27 854 25.22 0.1 32.2 87 -1.7 28.9
03:55 1025 30.27 854 25.22 0.6 33.1 86 -1.4 29.5
04:00 1025 30.27 854 25.22 0.7 33.2 86 -1.5 29.4
04:05 1025 30.27 854 25.22 0.6 33.1 86 -1.5 29.4
04:10 1025 30.27 854 25.22 0.5 32.9 86 -1.5 29.2
04:15 1025 30.27 854 25.22 0.2 32.4 87 -1.7 28.9
04:20 1025 30.27 854 25.22 -0.1 31.8 89 -1.7 28.9
04:25 1025 30.27 854 25.22 -0.2 31.7 89 -1.8 28.8
04:30 1025 30.27 854 25.22 -0.2 31.6 89 -1.8 28.8
04:35 1025 30.27 854 25.22 -0.3 31.4 90 -1.8 28.8
04:40 1025 30.27 854 25.22 -0.3 31.5 89 -1.8 28.8
04:45 1025 30.27 854 25.22 -0.3 31.5 89 -1.9 28.6
04:50 1025 30.27 854 25.22 -0.4 31.4 90 -1.8 28.7
04:55 1025 30.27 854 25.22 -0.2 31.6 89 -1.9 28.6
05:00 1025 30.27 854 25.22 -0.2 31.7 89 -1.7 28.9
05:05 1025 30.27 854 25.22 -0.3 31.4 90 -1.8 28.7
05:10 1025 30.27 854 25.22 -0.3 31.4 89 -1.9 28.6
05:15 1025 30.27 854 25.22 -0.2 31.6 89 -1.8 28.7
05:20 1025 30.27 854 25.22 -0.5 31.2 90 -1.9 28.6
05:25 1025 30.27 854 25.22 -0.7 30.7 91 -2 28.4
05:30 1025 30.27 854 25.22 -0.7 30.8 90 -2 28.3
05:35 1025 30.27 854 25.22 -0.5 31.1 90 -2 28.4
05:40 1025 30.27 854 25.22 -0.4 31.3 89 -1.9 28.5
05:45 1025 30.27 854 25.22 -0.2 31.6 89 -1.9 28.6
05:50 1025 30.27 854 25.22 -0.2 31.7 88 -1.9 28.6
05:55 1025 30.27 854 25.22 -0.1 31.8 88 -1.8 28.8
06:00 1025 30.27 854 25.22 -0.1 31.8 88 -1.9 28.6
06:05 1025 30.27 854 25.22 -0.3 31.4 89 -2 28.4
06:10 1025 30.27 854 25.22 -0.5 31.1 89 -2.1 28.1
06:15 1025 30.27 854 25.22 -0.6 30.9 90 -2.1 28.2
06:20 1025 30.27 854 25.22 -0.6 30.9 89 -2.2 28
06:25 1025 30.27 854 25.22 -0.6 30.9 90 -2.1 28.3
06:30 1025 30.27 854 25.22 -0.5 31.2 89 -2 28.3
06:35 1025 30.27 854 25.22 -0.3 31.4 88 -2.1 28.3
06:40 1025 30.27 854 25.22 -0.3 31.5 88 -2.1 28.2
06:45 1025 30.27 854 25.22 -0.2 31.7 87 -2.1 28.3
06:50 1025 30.27 854 25.22 -0.1 31.7 86 -2.1 28.2
06:55 1025 30.27 854 25.22 -0.2 31.7 86 -2.3 27.9
07:00 1025 30.27 854 25.22 -0.1 31.7 86 -2.2 28
07:05 1025 30.27 854 25.22 -0.2 31.7 86 -2.2 28.1
07:10 1025 30.27 854 25.22 -0.1 31.7 86 -2.3 27.9
07:15 1025 30.27 854 25.22 -0.1 31.9 85 -2.3 27.9
07:20 1025 30.27 854 25.22 -0.2 31.6 87 -2.2 28.1
07:25 1025 30.27 854 25.22 -0.1 31.9 85 -2.2 28
07:30 1025 30.27 854 25.22 0.3 32.5 84 -2.1 28.2
07:35 1025 30.27 854 25.22 0.4 32.8 84 -1.9 28.5
07:40 1025 30.27 854 25.22 0.6 33 82 -2.2 28.1
07:45 1025 30.27 854 25.22 0.6 33.1 82 -2.2 28.1
07:50 1025 30.27 854 25.22 0.6 33 81 -2.3 27.8
07:55 1025 30.27 854 25.22 0.7 33.3 79 -2.5 27.4
08:00 1025 30.27 854 25.22 0.9 33.6 79 -2.4 27.7
08:05 1025 30.27 854 25.22 0.8 33.5 78 -2.6 27.3
08:10 1025 30.27 854 25.22 0.4 32.8 80 -2.6 27.3
08:15 1025 30.27 854 25.22 0.1 32.1 80 -2.9 26.7
08:20 1025 30.27 854 25.22 0.4 32.6 79 -2.9 26.7
08:25 1025 30.27 854 25.22 0.8 33.5 76 -2.9 26.8
08:30 1025 30.27 854 25.22 0.8 33.4 76 -2.9 26.8
08:35 1025 30.27 854 25.22 1.1 33.9 74 -3 26.6
08:40 1025 30.27 854 25.22 1.5 34.8 74 -2.7 27.2
08:45 1025 30.27 854 25.22 1.4 34.5 74 -2.7 27.2
08:50 1025 30.27 854 25.22 1.4 34.6 74 -2.6 27.3
08:55 1025 30.27 854 25.22 1.6 34.8 73 -2.8 27
09:00 1025 30.27 854 25.22 1.9 35.3 73 -2.5 27.6
09:05 1025 30.27 854 25.22 2.4 36.3 69 -2.6 27.3
09:10 1025 30.27 854 25.22 2.4 36.2 72 -2.2 28
09:15 1025 30.27 854 25.22 2.3 36.1 73 -2.1 28.2
09:20 1025 30.27 854 25.22 2.4 36.3 72 -2.2 28
09:25 1025 30.27 854 25.22 2.6 36.7 71 -2.2 28.1
09:30 1025 30.27 854 25.22 3.2 37.7 68 -2.3 27.9
09:35 1025 30.27 854 25.22 3.4 38.1 70 -1.6 29.1
09:40 1025 30.27 854 25.22 4.1 39.3 68 -1.2 29.8
09:45 1025 30.27 854 25.22 4.5 40.2 65 -1.5 29.3
09:50 1025 30.27 854 25.22 4.3 39.8 65 -1.6 29.1
09:55 1025 30.27 854 25.22 4.6 40.4 65 -1.5 29.4
10:00 1025 30.27 854 25.22 4.9 40.8 68 -0.6 31
10:05 1025 30.27 854 25.22 5.4 41.7 64 -0.8 30.5
10:10 1025 30.27 854 25.22 5.2 41.4 63 -1.3 29.7
10:15 1025 30.27 854 25.22 5.1 41.1 64 -1.2 29.8
10:20 1025 30.27 854 25.22 5.2 41.3 64 -1.1 30.1
10:25 1025 30.27 854 25.22 5.8 42.4 62 -0.9 30.3
10:30 1025 30.27 854 25.22 6 42.8 62 -0.6 30.9
10:35 1025 30.27 854 25.22 6.5 43.7 63 0 32.1
10:40 1025 30.27 854 25.22 6.6 44 57 -1.1 29.9
10:45 1025 30.27 854 25.22 6.6 44 58 -1.1 30.1
10:50 1025 30.27 854 25.22 6.8 44.2 57 -1.2 29.9
10:55 1024 30.24 854 25.22 6.9 44.4 58 -0.7 30.7
11:00 1024 30.24 854 25.22 8 46.5 57 0 32
11:05 1024 30.24 853 25.19 8.3 47 53 -0.5 31
11:10 1024 30.24 853 25.19 8 46.5 53 -0.9 30.4
11:15 1024 30.24 853 25.19 7.9 46.3 52 -1.4 29.4
11:20 1024 30.24 853 25.19 8.3 46.9 49 -1.7 29
11:25 1024 30.24 853 25.19 7.8 46.1 52 -1.4 29.4
11:30 1024 30.24 853 25.19 8.1 46.6 51 -1.3 29.7
11:35 1024 30.24 853 25.19 8.6 47.4 52 -0.7 30.8
11:40 1024 30.24 853 25.19 8.8 47.8 49 -1.2 29.8
11:45 1024 30.24 853 25.19 9.3 48.7 48 -1 30.1
11:50 1024 30.24 853 25.19 9.9 49.8 45 -1.4 29.6
11:55 1023 30.21 853 25.19 10 50 46 -1.2 29.9
12:00 1023 30.21 853 25.19 9.6 49.3 42 -2.7 27.2
12:05 1023 30.21 852 25.16 9.9 49.7 39 -3.5 25.7
12:10 1023 30.21 852 25.16 10.3 50.5 42 -2 28.3
12:15 1023 30.21 852 25.16 11.2 52.2 39 -2.1 28.2
12:20 1023 30.21 852 25.16 11.8 53.3 36 -2.8 27
12:25 1023 30.21 852 25.16 11.6 53 38 -2 28.4
12:30 1023 30.21 852 25.16 11.7 53.1 37 -2.6 27.4
12:35 1023 30.21 852 25.16 10.3 50.6 43 -1.6 29.2
12:40 1023 30.21 852 25.16 10.8 51.4 41 -2 28.4
12:45 1023 30.21 852 25.16 11.5 52.7 40 -1.4 29.4
12:50 1023 30.21 852 25.16 11.2 52.2 40 -1.7 28.9
12:55 1023 30.21 852 25.16 10.8 51.4 43 -1.3 29.7
13:00 1023 30.21 852 25.16 10 50.1 45 -1.4 29.4
13:05 1023 30.21 852 25.16 9.8 49.7 45 -1.4 29.6
13:10 1023 30.21 852 25.16 11.1 52 41 -1.8 28.8
13:15 1023 30.21 852 25.16 10.9 51.7 42 -1.5 29.3
13:20 1023 30.21 852 25.16 10.8 51.5 43 -1.1 30.1
13:25 1022 30.18 852 25.16 11.8 53.3 38 -1.9 28.5
13:30 1022 30.18 852 25.16 11.9 53.3 38 -2.1 28.3
13:35 1022 30.18 852 25.16 11.4 52.5 40 -1.8 28.7
13:40 1022 30.18 851 25.13 11.7 53 39 -1.9 28.6
13:45 1022 30.18 851 25.13 11.3 52.4 39 -1.9 28.5
13:50 1022 30.18 851 25.13 12.3 54.1 38 -1.7 29
13:55 1022 30.18 851 25.13 12.6 54.7 36 -1.9 28.6
14:00 1022 30.18 851 25.13 12.8 55 35 -2.1 28.2
14:05 1022 30.18 851 25.13 13 55.3 35 -2 28.3
14:10 1022 30.18 851 25.13 12.7 54.9 35 -2.1 28.2
14:15 1022 30.18 851 25.13 12.6 54.7 36 -1.9 28.6
14:20 1022 30.18 851 25.13 12.8 55 34 -2.6 27.4
14:25 1022 30.18 851 25.13 12.5 54.6 36 -2.2 28
14:30 1022 30.18 851 25.13 12.9 55.2 34 -2.4 27.8
14:35 1022 30.18 851 25.13 12.7 54.9 35 -2.3 27.9
14:40 1021 30.15 851 25.13 12.7 54.8 33 -3 26.6
14:45 1021 30.15 851 25.13 13 55.4 33 -2.7 27.1
14:50 1021 30.15 850 25.1 13.5 56.3 33 -2.6 27.4
14:55 1021 30.15 850 25.1 13.3 56 34 -2.3 27.9
15:00 1021 30.15 850 25.1 13.4 56.2 33 -2.6 27.3
15:05 1021 30.15 850 25.1 13.3 55.9 32 -2.9 26.8
15:10 1021 30.15 850 25.1 13.3 55.9 33 -2.6 27.3
15:15 1021 30.15 850 25.1 13.8 56.8 32 -2.6 27.4
15:20 1021 30.15 850 25.1 13.2 55.7 34 -2.4 27.7
15:25 1021 30.15 850 25.1 13 55.4 33 -2.8 26.9
15:30 1021 30.15 850 25.1 13.1 55.6 32 -3.2 26.2
15:35 1021 30.15 850 25.1 13 55.5 32 -3 26.6
15:40 1021 30.15 850 25.1 13.2 55.8 32 -3.1 26.4
15:45 1021 30.15 850 25.1 13.2 55.8 31 -3.4 25.9
15:50 1021 30.15 850 25.1 13.1 55.6 31 -3.4 25.9
15:55 1021 30.15 850 25.1 13.2 55.8 32 -3.2 26.3
16:00 1020 30.12 850 25.1 13.2 55.7 31 -3.4 26
16:05 1020 30.12 850 25.1 13.2 55.8 32 -3.2 26.3
16:10 1020 30.12 849 25.07 13.3 56 31 -3.3 26
16:15 1020 30.12 849 25.07 13.6 56.5 30 -3.4 25.9
16:20 1020 30.12 849 25.07 13.8 56.8 29 -3.8 25.1
16:25 1020 30.12 849 25.07 13.2 55.8 30 -3.8 25.2
16:30 1020 30.12 849 25.07 12.6 54.7 31 -4.1 24.6
16:35 1020 30.12 849 25.07 12.5 54.5 31 -4.1 24.7
16:40 1020 30.12 849 25.07 13.2 55.7 30 -3.8 25.2
16:45 1020 30.12 849 25.07 13.7 56.7 30 -3.7 25.3
16:50 1020 30.12 849 25.07 13.8 56.8 28 -4.2 24.4
16:55 1020 30.12 849 25.07 13.7 56.7 28 -4.2 24.4
17:00 1020 30.12 849 25.07 13.7 56.6 28 -4.5 24
17:05 1020 30.12 849 25.07 13.1 55.6 29 -4.5 23.9
17:10 1020 30.12 849 25.07 12.2 54 31 -4.4 24.1
17:15 1020 30.12 849 25.07 11.8 53.2 31 -4.8 23.4
17:20 1020 30.12 849 25.07 11.9 53.3 31 -4.9 23.2
17:25 1020 30.12 849 25.07 12.6 54.7 30 -4.4 24
17:30 1020 30.12 849 25.07 12.9 55.2 29 -4.6 23.8
17:35 1020 30.12 849 25.07 12.9 55.2 28 -5 23
17:40 1020 30.12 849 25.07 12 53.6 29 -5.6 21.9
17:45 1020 30.12 849 25.07 11.6 52.9 29 -5.8 21.6
17:50 1019 30.09 849 25.07 11.7 53 29 -5.9 21.5
17:55 1019 30.09 849 25.07 11.7 53 28 -6 21.2
18:00 1019 30.09 849 25.07 11.7 53.1 27 -6.4 20.5
18:05 1019 30.09 849 25.07 11.6 52.8 29 -6 21.2
18:10 1019 30.09 849 25.07 11.5 52.7 28 -6.4 20.4
18:15 1019 30.09 849 25.07 11.5 52.8 28 -6.5 20.2
18:20 1019 30.09 849 25.07 11.7 53.1 28 -6.4 20.5
18:25 1019 30.09 849 25.07 11.7 53.1 28 -6.2 20.8
18:30 1019 30.09 849 25.07 11.7 53.1 28 -6 21.2
18:35 1019 30.09 849 25.07 11.7 53 28 -6.2 20.9
18:40 1019 30.09 849 25.07 11.6 52.8 28 -6.1 21
18:45 1019 30.09 849 25.07 11 51.9 32 -5.1 22.9
18:50 1019 30.09 849 25.07 10.7 51.3 33 -4.9 23.2
18:55 1019 30.09 849 25.07 10.3 50.5 39 -3.1 26.5
19:00 1019 30.09 849 25.07 9.1 48.3 54 0.2 32.4
19:05 1019 30.09 849 25.07 8.2 46.7 61 1.1 34
19:10 1019 30.09 849 25.07 7.4 45.3 65 1.3 34.3
19:15 1019 30.09 849 25.07 6.6 43.9 68 1.2 34.2
19:20 1019 30.09 849 25.07 6.3 43.3 69 1.1 34
19:25 1019 30.09 848 25.04 6.1 43 69 0.9 33.6
19:30 1019 30.09 848 25.04 6.1 43 70 1 33.7
19:35 1019 30.09 849 25.07 6 42.9 70 1.1 33.9
19:40 1019 30.09 849 25.07 5.6 42.1 72 1.1 33.9
19:45 1019 30.09 849 25.07 5.3 41.6 73 0.8 33.4
19:50 1019 30.09 849 25.07 4.9 40.9 72 0.2 32.4
19:55 1019 30.09 849 25.07 4.8 40.7 71 -0 31.9
20:00 1019 30.09 849 25.07 4.9 40.8 72 0.2 32.4
20:05 1019 30.09 849 25.07 4.8 40.6 73 0.3 32.5
20:10 1019 30.09 848 25.04 4.9 40.7 72 0.2 32.4
20:15 1019 30.09 848 25.04 4.9 40.8 72 0.2 32.4
20:20 1019 30.09 848 25.04 4.6 40.3 73 0.2 32.3
20:25 1019 30.09 848 25.04 4.5 40 75 0.4 32.7
20:30 1019 30.09 848 25.04 4.3 39.8 75 0.3 32.6
20:35 1019 30.09 848 25.04 4.3 39.8 74 0.2 32.3
20:40 1019 30.09 848 25.04 4.4 39.9 74 0.3 32.5
20:45 1019 30.09 848 25.04 4.5 40 74 0.2 32.3
20:50 1019 30.09 848 25.04 4.7 40.4 72 0.1 32.2
20:55 1019 30.09 848 25.04 4.9 40.9 69 -0.3 31.5
21:00 1019 30.09 848 25.04 4.9 40.7 71 0.1 32.2
21:05 1019 30.09 848 25.04 4.6 40.2 73 0.2 32.4
21:10 1019 30.09 848 25.04 4.5 40.1 71 -0.3 31.4
21:15 1019 30.09 848 25.04 4.5 40 73 0 32.1
21:20 1019 30.09 848 25.04 4.1 39.4 75 0 32
21:25 1019 30.09 848 25.04 3.9 39.1 76 0.1 32.2
21:30 1019 30.09 848 25.04 3.7 38.7 77 0.1 32.1
21:35 1019 30.09 848 25.04 3.6 38.6 74 -0.6 30.9
21:40 1019 30.09 848 25.04 3.6 38.4 69 -1.6 29
21:45 1019 30.09 848 25.04 3.7 38.6 72 -0.8 30.5
21:50 1019 30.09 848 25.04 3.5 38.3 75 -0.5 31
21:55 1019 30.09 848 25.04 3.4 38.2 76 -0.3 31.4
22:00 1019 30.09 848 25.04 3.4 38.2 77 -0.3 31.4
22:05 1019 30.09 848 25.04 3.6 38.5 76 -0.3 31.5
22:10 1019 30.09 848 25.04 3.8 38.9 75 -0.3 31.5
22:15 1019 30.09 848 25.04 3.8 38.9 74 -0.5 31.2
22:20 1019 30.09 848 25.04 3.6 38.4 76 -0.3 31.5
22:25 1019 30.09 848 25.04 3.5 38.4 74 -0.7 30.7
22:30 1019 30.09 848 25.04 4.3 39.7 70 -0.7 30.8
22:35 1019 30.09 848 25.04 4.5 40.2 71 -0.2 31.6
22:40 1019 30.09 848 25.04 4.4 40 71 -0.4 31.2
22:45 1019 30.09 848 25.04 4.5 40.2 69 -0.6 31
22:50 1019 30.09 848 25.04 4.6 40.2 70 -0.5 31.1
22:55 1019 30.09 848 25.04 4.4 40 69 -0.7 30.8
23:00 1019 30.09 848 25.04 4.6 40.4 68 -0.8 30.5
23:05 1019 30.09 848 25.04 4.2 39.5 71 -0.6 30.9
23:10 1019 30.09 848 25.04 3.4 38.2 74 -0.8 30.5
23:15 1019 30.09 848 25.04 3.1 37.6 75 -0.9 30.4
23:20 1019 30.09 848 25.04 3 37.4 75 -1.1 30.1
23:25 1019 30.09 848 25.04 2.9 37.2 75 -1.2 29.9
23:30 1019 30.09 848 25.04 2.9 37.3 74 -1.2 29.8
23:35 1019 30.09 848 25.04 2.9 37.1 73 -1.5 29.4
23:40 1019 30.09 848 25.04 3.1 37.6 71 -1.6 29.1
23:45 1019 30.09 848 25.04 3.3 38 70 -1.6 29.1
23:50 1019 30.09 848 25.04 3.5 38.2 69 -1.7 28.9
23:55 1019 30.09 848 25.04 3.4 38.1 70 -1.6 29.1
24:00 1018 30.06 848 25.04 3.4 38 70 -1.6 29